sensor_id;sensor_type;location;lat;lon;timestamp;P1;durP1;ratioP1;P2;durP2;ratioP2
25758;SDS011;13604;52.496;13.456;2023-11-21T00:01:03;19.75;;;11.57;;
25758;SDS011;13604;52.496;13.456;2023-11-21T00:03:29;23.70;;;12.82;;
25758;SDS011;13604;52.496;13.456;2023-11-21T00:05:55;21.35;;;12.90;;
25758;SDS011;13604;52.496;13.456;2023-11-21T00:08:20;24.88;;;12.80;;
25758;SDS011;13604;52.496;13.456;2023-11-21T00:10:46;27.67;;;13.50;;
25758;SDS011;13604;52.496;13.456;2023-11-21T00:13:11;24.95;;;13.10;;
25758;SDS011;13604;52.496;13.456;2023-11-21T00:15:37;27.85;;;13.85;;
25758;SDS011;13604;52.496;13.456;2023-11-21T00:18:02;30.70;;;14.98;;
25758;SDS011;13604;52.496;13.456;2023-11-21T00:20:28;33.63;;;17.75;;
25758;SDS011;13604;52.496;13.456;2023-11-21T00:22:53;31.40;;;16.63;;
25758;SDS011;13604;52.496;13.456;2023-11-21T00:25:19;35.10;;;17.35;;
25758;SDS011;13604;52.496;13.456;2023-11-21T00:27:45;33.45;;;16.63;;
25758;SDS011;13604;52.496;13.456;2023-11-21T00:30:10;41.13;;;19.25;;
25758;SDS011;13604;52.496;13.456;2023-11-21T00:32:36;40.63;;;18.95;;
25758;SDS011;13604;52.496;13.456;2023-11-21T00:35:03;45.85;;;21.00;;
25758;SDS011;13604;52.496;13.456;2023-11-21T00:37:28;47.78;;;20.92;;
25758;SDS011;13604;52.496;13.456;2023-11-21T00:39:53;47.55;;;20.88;;
25758;SDS011;13604;52.496;13.456;2023-11-21T00:42:19;51.42;;;21.92;;
25758;SDS011;13604;52.496;13.456;2023-11-21T00:44:44;53.30;;;22.58;;
25758;SDS011;13604;52.496;13.456;2023-11-21T00:47:09;51.17;;;23.83;;
25758;SDS011;13604;52.496;13.456;2023-11-21T00:49:35;56.10;;;24.77;;
25758;SDS011;13604;52.496;13.456;2023-11-21T00:52:00;73.70;;;26.88;;
25758;SDS011;13604;52.496;13.456;2023-11-21T00:54:26;77.57;;;26.20;;
25758;SDS011;13604;52.496;13.456;2023-11-21T00:56:52;68.70;;;26.92;;
25758;SDS011;13604;52.496;13.456;2023-11-21T00:59:17;64.35;;;26.95;;
25758;SDS011;13604;52.496;13.456;2023-11-21T01:01:42;68.90;;;27.10;;
25758;SDS011;13604;52.496;13.456;2023-11-21T01:04:08;67.50;;;28.35;;
25758;SDS011;13604;52.496;13.456;2023-11-21T01:06:33;70.10;;;26.25;;
25758;SDS011;13604;52.496;13.456;2023-11-21T01:08:58;68.80;;;27.52;;
25758;SDS011;13604;52.496;13.456;2023-11-21T01:11:24;95.75;;;29.70;;
25758;SDS011;13604;52.496;13.456;2023-11-21T01:13:49;88.20;;;28.77;;
25758;SDS011;13604;52.496;13.456;2023-11-21T01:16:14;83.78;;;29.35;;
25758;SDS011;13604;52.496;13.456;2023-11-21T01:18:40;89.22;;;29.10;;
25758;SDS011;13604;52.496;13.456;2023-11-21T01:21:05;101.78;;;31.33;;
25758;SDS011;13604;52.496;13.456;2023-11-21T01:23:31;108.32;;;32.08;;
25758;SDS011;13604;52.496;13.456;2023-11-21T01:25:56;98.65;;;31.52;;
25758;SDS011;13604;52.496;13.456;2023-11-21T01:28:22;110.22;;;31.17;;
25758;SDS011;13604;52.496;13.456;2023-11-21T01:30:48;86.75;;;30.90;;
25758;SDS011;13604;52.496;13.456;2023-11-21T01:33:14;98.15;;;31.63;;
25758;SDS011;13604;52.496;13.456;2023-11-21T01:35:40;129.27;;;35.38;;
25758;SDS011;13604;52.496;13.456;2023-11-21T01:38:05;105.22;;;34.63;;
25758;SDS011;13604;52.496;13.456;2023-11-21T01:40:33;137.88;;;37.08;;
25758;SDS011;13604;52.496;13.456;2023-11-21T01:42:58;130.00;;;37.58;;
25758;SDS011;13604;52.496;13.456;2023-11-21T01:45:23;179.60;;;42.17;;
25758;SDS011;13604;52.496;13.456;2023-11-21T01:47:50;129.00;;;39.00;;
25758;SDS011;13604;52.496;13.456;2023-11-21T01:50:16;146.13;;;40.20;;
25758;SDS011;13604;52.496;13.456;2023-11-21T01:52:42;146.02;;;39.03;;
25758;SDS011;13604;52.496;13.456;2023-11-21T01:55:09;141.60;;;38.53;;
25758;SDS011;13604;52.496;13.456;2023-11-21T01:57:36;133.57;;;37.35;;
25758;SDS011;13604;52.496;13.456;2023-11-21T02:00:05;129.85;;;35.20;;
25758;SDS011;13604;52.496;13.456;2023-11-21T02:02:40;130.63;;;34.72;;
25758;SDS011;13604;52.496;13.456;2023-11-21T02:05:12;122.65;;;34.50;;
25758;SDS011;13604;52.496;13.456;2023-11-21T02:07:39;120.65;;;33.20;;
25758;SDS011;13604;52.496;13.456;2023-11-21T02:10:06;105.90;;;29.80;;
25758;SDS011;13604;52.496;13.456;2023-11-21T02:12:32;137.15;;;32.50;;
25758;SDS011;13604;52.496;13.456;2023-11-21T02:14:58;90.75;;;26.63;;
25758;SDS011;13604;52.496;13.456;2023-11-21T02:17:23;106.18;;;27.10;;
25758;SDS011;13604;52.496;13.456;2023-11-21T02:19:49;106.00;;;27.38;;
25758;SDS011;13604;52.496;13.456;2023-11-21T02:22:16;87.50;;;26.10;;
25758;SDS011;13604;52.496;13.456;2023-11-21T02:24:42;87.28;;;24.83;;
25758;SDS011;13604;52.496;13.456;2023-11-21T02:27:07;87.20;;;24.45;;
25758;SDS011;13604;52.496;13.456;2023-11-21T02:29:32;83.45;;;23.60;;
25758;SDS011;13604;52.496;13.456;2023-11-21T02:31:58;85.22;;;24.55;;
25758;SDS011;13604;52.496;13.456;2023-11-21T02:34:24;76.85;;;22.67;;
25758;SDS011;13604;52.496;13.456;2023-11-21T02:36:50;71.80;;;21.80;;
25758;SDS011;13604;52.496;13.456;2023-11-21T02:39:15;78.97;;;23.63;;
25758;SDS011;13604;52.496;13.456;2023-11-21T02:41:41;74.50;;;23.00;;
25758;SDS011;13604;52.496;13.456;2023-11-21T02:44:07;69.07;;;22.30;;
25758;SDS011;13604;52.496;13.456;2023-11-21T02:46:32;77.35;;;22.17;;
25758;SDS011;13604;52.496;13.456;2023-11-21T02:49:01;70.80;;;22.08;;
25758;SDS011;13604;52.496;13.456;2023-11-21T02:51:27;60.40;;;20.52;;
25758;SDS011;13604;52.496;13.456;2023-11-21T02:53:53;61.53;;;21.05;;
25758;SDS011;13604;52.496;13.456;2023-11-21T02:56:19;52.22;;;18.60;;
25758;SDS011;13604;52.496;13.456;2023-11-21T02:58:45;56.22;;;20.15;;
25758;SDS011;13604;52.496;13.456;2023-11-21T03:01:10;48.30;;;18.23;;
25758;SDS011;13604;52.496;13.456;2023-11-21T03:03:36;58.60;;;19.42;;
25758;SDS011;13604;52.496;13.456;2023-11-21T03:06:05;53.33;;;18.73;;
25758;SDS011;13604;52.496;13.456;2023-11-21T03:08:31;48.08;;;19.00;;
25758;SDS011;13604;52.496;13.456;2023-11-21T03:10:57;47.55;;;19.92;;
25758;SDS011;13604;52.496;13.456;2023-11-21T03:13:22;56.38;;;20.90;;
25758;SDS011;13604;52.496;13.456;2023-11-21T03:15:47;40.58;;;18.70;;
25758;SDS011;13604;52.496;13.456;2023-11-21T03:18:13;44.45;;;21.08;;
25758;SDS011;13604;52.496;13.456;2023-11-21T03:20:38;44.58;;;20.10;;
25758;SDS011;13604;52.496;13.456;2023-11-21T03:23:04;36.10;;;19.10;;
25758;SDS011;13604;52.496;13.456;2023-11-21T03:25:30;38.53;;;18.63;;
25758;SDS011;13604;52.496;13.456;2023-11-21T03:27:56;33.25;;;17.88;;
25758;SDS011;13604;52.496;13.456;2023-11-21T03:30:21;36.22;;;18.58;;
25758;SDS011;13604;52.496;13.456;2023-11-21T03:32:47;36.17;;;17.92;;
25758;SDS011;13604;52.496;13.456;2023-11-21T03:35:12;31.65;;;17.20;;
25758;SDS011;13604;52.496;13.456;2023-11-21T03:37:37;30.55;;;17.30;;
25758;SDS011;13604;52.496;13.456;2023-11-21T03:40:06;29.85;;;15.98;;
25758;SDS011;13604;52.496;13.456;2023-11-21T03:42:33;29.52;;;16.08;;
25758;SDS011;13604;52.496;13.456;2023-11-21T03:44:58;25.73;;;14.57;;
25758;SDS011;13604;52.496;13.456;2023-11-21T03:47:23;25.90;;;14.45;;
25758;SDS011;13604;52.496;13.456;2023-11-21T03:49:49;33.28;;;15.85;;
25758;SDS011;13604;52.496;13.456;2023-11-21T03:52:14;30.70;;;15.73;;
25758;SDS011;13604;52.496;13.456;2023-11-21T03:54:40;25.00;;;14.43;;
25758;SDS011;13604;52.496;13.456;2023-11-21T03:57:05;27.77;;;15.38;;
25758;SDS011;13604;52.496;13.456;2023-11-21T03:59:30;26.58;;;15.00;;
25758;SDS011;13604;52.496;13.456;2023-11-21T04:01:56;27.52;;;15.57;;
25758;SDS011;13604;52.496;13.456;2023-11-21T04:04:22;27.67;;;15.38;;
25758;SDS011;13604;52.496;13.456;2023-11-21T04:06:47;26.60;;;15.00;;
25758;SDS011;13604;52.496;13.456;2023-11-21T04:09:12;30.50;;;15.13;;
25758;SDS011;13604;52.496;13.456;2023-11-21T04:11:38;28.42;;;15.68;;
25758;SDS011;13604;52.496;13.456;2023-11-21T04:14:03;26.30;;;15.02;;
25758;SDS011;13604;52.496;13.456;2023-11-21T04:16:28;27.33;;;14.88;;
25758;SDS011;13604;52.496;13.456;2023-11-21T04:18:53;23.70;;;13.27;;
25758;SDS011;13604;52.496;13.456;2023-11-21T04:21:19;23.25;;;13.55;;
25758;SDS011;13604;52.496;13.456;2023-11-21T04:23:44;26.80;;;14.43;;
25758;SDS011;13604;52.496;13.456;2023-11-21T04:26:09;22.58;;;12.30;;
25758;SDS011;13604;52.496;13.456;2023-11-21T04:28:35;22.92;;;12.82;;
25758;SDS011;13604;52.496;13.456;2023-11-21T04:31:00;20.67;;;12.52;;
25758;SDS011;13604;52.496;13.456;2023-11-21T04:33:25;22.10;;;12.10;;
25758;SDS011;13604;52.496;13.456;2023-11-21T04:35:51;21.15;;;12.45;;
25758;SDS011;13604;52.496;13.456;2023-11-21T04:38:16;20.35;;;11.55;;
25758;SDS011;13604;52.496;13.456;2023-11-21T04:40:41;17.75;;;10.50;;
25758;SDS011;13604;52.496;13.456;2023-11-21T04:43:06;18.33;;;10.82;;
25758;SDS011;13604;52.496;13.456;2023-11-21T04:45:32;19.77;;;10.95;;
25758;SDS011;13604;52.496;13.456;2023-11-21T04:47:57;16.65;;;10.48;;
25758;SDS011;13604;52.496;13.456;2023-11-21T04:50:22;18.27;;;10.88;;
25758;SDS011;13604;52.496;13.456;2023-11-21T04:52:48;16.75;;;10.48;;
25758;SDS011;13604;52.496;13.456;2023-11-21T04:55:13;18.77;;;10.45;;
25758;SDS011;13604;52.496;13.456;2023-11-21T04:57:40;19.42;;;10.80;;
25758;SDS011;13604;52.496;13.456;2023-11-21T05:00:06;19.27;;;10.70;;
25758;SDS011;13604;52.496;13.456;2023-11-21T05:02:32;17.15;;;10.18;;
25758;SDS011;13604;52.496;13.456;2023-11-21T05:04:59;21.02;;;11.27;;
25758;SDS011;13604;52.496;13.456;2023-11-21T05:07:24;18.92;;;9.68;;
25758;SDS011;13604;52.496;13.456;2023-11-21T05:09:53;13.85;;;8.80;;
25758;SDS011;13604;52.496;13.456;2023-11-21T05:12:19;20.30;;;9.27;;
25758;SDS011;13604;52.496;13.456;2023-11-21T05:14:44;16.73;;;8.85;;
25758;SDS011;13604;52.496;13.456;2023-11-21T05:17:09;15.35;;;9.15;;
25758;SDS011;13604;52.496;13.456;2023-11-21T05:19:35;15.50;;;9.30;;
25758;SDS011;13604;52.496;13.456;2023-11-21T05:22:00;11.73;;;7.47;;
25758;SDS011;13604;52.496;13.456;2023-11-21T05:24:26;19.98;;;8.68;;
25758;SDS011;13604;52.496;13.456;2023-11-21T05:26:51;16.70;;;9.90;;
25758;SDS011;13604;52.496;13.456;2023-11-21T05:29:16;14.63;;;8.57;;
25758;SDS011;13604;52.496;13.456;2023-11-21T05:31:42;16.88;;;8.73;;
25758;SDS011;13604;52.496;13.456;2023-11-21T05:34:07;14.80;;;9.38;;
25758;SDS011;13604;52.496;13.456;2023-11-21T05:36:32;16.67;;;8.65;;
25758;SDS011;13604;52.496;13.456;2023-11-21T05:38:58;15.48;;;8.75;;
25758;SDS011;13604;52.496;13.456;2023-11-21T05:41:23;16.40;;;8.85;;
25758;SDS011;13604;52.496;13.456;2023-11-21T05:43:49;14.35;;;8.55;;
25758;SDS011;13604;52.496;13.456;2023-11-21T05:46:14;16.23;;;8.85;;
25758;SDS011;13604;52.496;13.456;2023-11-21T05:48:39;14.52;;;8.23;;
25758;SDS011;13604;52.496;13.456;2023-11-21T05:51:06;16.50;;;8.68;;
25758;SDS011;13604;52.496;13.456;2023-11-21T05:53:31;14.30;;;7.68;;
25758;SDS011;13604;52.496;13.456;2023-11-21T05:55:56;14.43;;;8.10;;
25758;SDS011;13604;52.496;13.456;2023-11-21T05:58:22;13.98;;;8.25;;
25758;SDS011;13604;52.496;13.456;2023-11-21T06:00:47;11.63;;;7.53;;
25758;SDS011;13604;52.496;13.456;2023-11-21T06:03:13;12.45;;;7.85;;
25758;SDS011;13604;52.496;13.456;2023-11-21T06:05:38;12.88;;;7.88;;
25758;SDS011;13604;52.496;13.456;2023-11-21T06:08:03;12.18;;;7.28;;
25758;SDS011;13604;52.496;13.456;2023-11-21T06:10:29;12.95;;;7.85;;
25758;SDS011;13604;52.496;13.456;2023-11-21T06:12:54;14.30;;;8.27;;
25758;SDS011;13604;52.496;13.456;2023-11-21T06:15:19;15.80;;;9.25;;
25758;SDS011;13604;52.496;13.456;2023-11-21T06:17:47;16.27;;;8.60;;
25758;SDS011;13604;52.496;13.456;2023-11-21T06:20:17;15.95;;;9.95;;
25758;SDS011;13604;52.496;13.456;2023-11-21T06:22:43;17.10;;;8.90;;
25758;SDS011;13604;52.496;13.456;2023-11-21T06:25:10;15.18;;;9.07;;
25758;SDS011;13604;52.496;13.456;2023-11-21T06:27:38;15.73;;;9.13;;
25758;SDS011;13604;52.496;13.456;2023-11-21T06:30:05;12.07;;;7.47;;
25758;SDS011;13604;52.496;13.456;2023-11-21T06:32:31;16.27;;;8.43;;
25758;SDS011;13604;52.496;13.456;2023-11-21T06:34:57;19.50;;;8.32;;
25758;SDS011;13604;52.496;13.456;2023-11-21T06:37:24;13.45;;;8.55;;
25758;SDS011;13604;52.496;13.456;2023-11-21T06:39:51;14.50;;;8.20;;
25758;SDS011;13604;52.496;13.456;2023-11-21T06:42:17;13.43;;;7.88;;
25758;SDS011;13604;52.496;13.456;2023-11-21T06:44:44;11.63;;;6.97;;
25758;SDS011;13604;52.496;13.456;2023-11-21T06:47:09;11.15;;;7.47;;
25758;SDS011;13604;52.496;13.456;2023-11-21T06:49:34;12.00;;;7.18;;
25758;SDS011;13604;52.496;13.456;2023-11-21T06:52:01;11.73;;;7.05;;
25758;SDS011;13604;52.496;13.456;2023-11-21T06:54:28;13.18;;;7.05;;
25758;SDS011;13604;52.496;13.456;2023-11-21T06:56:54;12.48;;;7.78;;
25758;SDS011;13604;52.496;13.456;2023-11-21T06:59:19;11.68;;;7.70;;
25758;SDS011;13604;52.496;13.456;2023-11-21T07:01:44;11.77;;;7.07;;
25758;SDS011;13604;52.496;13.456;2023-11-21T07:04:11;15.93;;;7.95;;
25758;SDS011;13604;52.496;13.456;2023-11-21T07:06:36;13.02;;;7.88;;
25758;SDS011;13604;52.496;13.456;2023-11-21T07:09:02;13.13;;;7.53;;
25758;SDS011;13604;52.496;13.456;2023-11-21T07:11:28;11.35;;;7.18;;
25758;SDS011;13604;52.496;13.456;2023-11-21T07:13:53;12.68;;;8.20;;
25758;SDS011;13604;52.496;13.456;2023-11-21T07:16:19;12.27;;;7.35;;
25758;SDS011;13604;52.496;13.456;2023-11-21T07:18:44;12.13;;;6.65;;
25758;SDS011;13604;52.496;13.456;2023-11-21T07:21:09;12.07;;;6.90;;
25758;SDS011;13604;52.496;13.456;2023-11-21T07:23:37;11.68;;;7.40;;
25758;SDS011;13604;52.496;13.456;2023-11-21T07:26:02;14.85;;;7.68;;
25758;SDS011;13604;52.496;13.456;2023-11-21T07:28:28;12.65;;;7.82;;
25758;SDS011;13604;52.496;13.456;2023-11-21T07:30:54;10.55;;;6.82;;
25758;SDS011;13604;52.496;13.456;2023-11-21T07:33:20;13.07;;;7.80;;
25758;SDS011;13604;52.496;13.456;2023-11-21T07:35:46;11.77;;;7.20;;
25758;SDS011;13604;52.496;13.456;2023-11-21T07:38:11;13.27;;;7.57;;
25758;SDS011;13604;52.496;13.456;2023-11-21T07:40:37;11.98;;;7.78;;
25758;SDS011;13604;52.496;13.456;2023-11-21T07:43:02;10.90;;;7.15;;
25758;SDS011;13604;52.496;13.456;2023-11-21T07:45:27;10.70;;;6.68;;
25758;SDS011;13604;52.496;13.456;2023-11-21T07:47:55;11.05;;;7.00;;
25758;SDS011;13604;52.496;13.456;2023-11-21T07:50:21;10.32;;;6.82;;
25758;SDS011;13604;52.496;13.456;2023-11-21T07:52:47;12.10;;;6.90;;
25758;SDS011;13604;52.496;13.456;2023-11-21T07:55:14;11.52;;;6.18;;
25758;SDS011;13604;52.496;13.456;2023-11-21T07:57:40;10.45;;;5.50;;
25758;SDS011;13604;52.496;13.456;2023-11-21T08:00:06;10.27;;;5.88;;
25758;SDS011;13604;52.496;13.456;2023-11-21T08:02:34;9.90;;;6.00;;
25758;SDS011;13604;52.496;13.456;2023-11-21T08:04:59;13.98;;;6.13;;
25758;SDS011;13604;52.496;13.456;2023-11-21T08:07:25;16.35;;;7.35;;
25758;SDS011;13604;52.496;13.456;2023-11-21T08:09:51;17.85;;;6.18;;
25758;SDS011;13604;52.496;13.456;2023-11-21T08:12:16;20.75;;;7.35;;
25758;SDS011;13604;52.496;13.456;2023-11-21T08:14:42;20.77;;;8.02;;
25758;SDS011;13604;52.496;13.456;2023-11-21T08:17:08;18.40;;;7.07;;
25758;SDS011;13604;52.496;13.456;2023-11-21T08:19:35;21.13;;;7.57;;
25758;SDS011;13604;52.496;13.456;2023-11-21T08:22:01;22.55;;;8.95;;
25758;SDS011;13604;52.496;13.456;2023-11-21T08:24:26;19.50;;;8.30;;
25758;SDS011;13604;52.496;13.456;2023-11-21T08:26:52;23.83;;;8.73;;
25758;SDS011;13604;52.496;13.456;2023-11-21T08:29:19;19.63;;;8.05;;
25758;SDS011;13604;52.496;13.456;2023-11-21T08:31:44;21.80;;;8.95;;
25758;SDS011;13604;52.496;13.456;2023-11-21T08:34:11;21.70;;;8.73;;
25758;SDS011;13604;52.496;13.456;2023-11-21T08:36:40;25.25;;;9.48;;
25758;SDS011;13604;52.496;13.456;2023-11-21T08:39:09;23.55;;;8.80;;
25758;SDS011;13604;52.496;13.456;2023-11-21T08:41:35;24.90;;;9.05;;
25758;SDS011;13604;52.496;13.456;2023-11-21T08:44:01;21.17;;;8.38;;
25758;SDS011;13604;52.496;13.456;2023-11-21T08:46:27;21.17;;;7.85;;
25758;SDS011;13604;52.496;13.456;2023-11-21T08:48:52;19.77;;;8.82;;
25758;SDS011;13604;52.496;13.456;2023-11-21T08:51:18;20.63;;;9.05;;
25758;SDS011;13604;52.496;13.456;2023-11-21T08:53:43;23.60;;;9.07;;
25758;SDS011;13604;52.496;13.456;2023-11-21T08:56:12;26.50;;;10.50;;
25758;SDS011;13604;52.496;13.456;2023-11-21T08:58:39;27.05;;;9.82;;
25758;SDS011;13604;52.496;13.456;2023-11-21T09:01:04;27.25;;;9.32;;
25758;SDS011;13604;52.496;13.456;2023-11-21T09:03:31;23.88;;;8.65;;
25758;SDS011;13604;52.496;13.456;2023-11-21T09:05:58;26.17;;;9.73;;
25758;SDS011;13604;52.496;13.456;2023-11-21T09:08:24;24.67;;;9.10;;
25758;SDS011;13604;52.496;13.456;2023-11-21T09:10:49;23.92;;;8.38;;
25758;SDS011;13604;52.496;13.456;2023-11-21T09:13:15;24.33;;;9.23;;
25758;SDS011;13604;52.496;13.456;2023-11-21T09:15:41;20.42;;;8.88;;
25758;SDS011;13604;52.496;13.456;2023-11-21T09:18:08;25.30;;;8.45;;
25758;SDS011;13604;52.496;13.456;2023-11-21T09:20:35;22.80;;;8.35;;
25758;SDS011;13604;52.496;13.456;2023-11-21T09:23:00;22.65;;;8.77;;
25758;SDS011;13604;52.496;13.456;2023-11-21T09:25:26;23.63;;;8.30;;
25758;SDS011;13604;52.496;13.456;2023-11-21T09:27:51;26.00;;;7.95;;
25758;SDS011;13604;52.496;13.456;2023-11-21T09:30:16;21.58;;;7.90;;
25758;SDS011;13604;52.496;13.456;2023-11-21T09:32:42;20.42;;;7.90;;
25758;SDS011;13604;52.496;13.456;2023-11-21T09:35:10;16.58;;;6.72;;
25758;SDS011;13604;52.496;13.456;2023-11-21T09:37:36;13.90;;;5.55;;
25758;SDS011;13604;52.496;13.456;2023-11-21T09:40:03;11.85;;;5.15;;
25758;SDS011;13604;52.496;13.456;2023-11-21T09:42:30;10.63;;;4.93;;
25758;SDS011;13604;52.496;13.456;2023-11-21T09:47:46;7.05;;;3.75;;
25758;SDS011;13604;52.496;13.456;2023-11-21T09:50:12;8.00;;;3.33;;
25758;SDS011;13604;52.496;13.456;2023-11-21T09:53:25;7.53;;;3.08;;
25758;SDS011;13604;52.496;13.456;2023-11-21T09:55:36;6.07;;;3.13;;
25758;SDS011;13604;52.496;13.456;2023-11-21T09:58:03;6.72;;;3.63;;
25758;SDS011;13604;52.496;13.456;2023-11-21T10:00:32;7.55;;;3.20;;
25758;SDS011;13604;52.496;13.456;2023-11-21T10:02:58;7.00;;;3.20;;
25758;SDS011;13604;52.496;13.456;2023-11-21T10:05:24;6.70;;;3.10;;
25758;SDS011;13604;52.496;13.456;2023-11-21T10:07:49;3.70;;;2.47;;
25758;SDS011;13604;52.496;13.456;2023-11-21T10:10:16;4.40;;;2.53;;
25758;SDS011;13604;52.496;13.456;2023-11-21T10:12:43;4.70;;;2.35;;
25758;SDS011;13604;52.496;13.456;2023-11-21T10:15:13;7.18;;;3.40;;
25758;SDS011;13604;52.496;13.456;2023-11-21T10:17:41;3.38;;;2.58;;
25758;SDS011;13604;52.496;13.456;2023-11-21T10:20:12;4.38;;;2.58;;
25758;SDS011;13604;52.496;13.456;2023-11-21T10:22:39;7.05;;;2.88;;
25758;SDS011;13604;52.496;13.456;2023-11-21T10:25:09;3.40;;;2.50;;
25758;SDS011;13604;52.496;13.456;2023-11-21T10:27:35;3.03;;;2.22;;
25758;SDS011;13604;52.496;13.456;2023-11-21T10:30:02;3.53;;;2.85;;
25758;SDS011;13604;52.496;13.456;2023-11-21T10:32:31;4.97;;;2.80;;
25758;SDS011;13604;52.496;13.456;2023-11-21T10:34:58;6.05;;;2.95;;
25758;SDS011;13604;52.496;13.456;2023-11-21T10:37:25;4.40;;;2.70;;
25758;SDS011;13604;52.496;13.456;2023-11-21T10:39:56;5.20;;;2.95;;
25758;SDS011;13604;52.496;13.456;2023-11-21T10:42:23;4.38;;;2.40;;
25758;SDS011;13604;52.496;13.456;2023-11-21T10:44:49;4.35;;;2.83;;
25758;SDS011;13604;52.496;13.456;2023-11-21T10:47:14;7.70;;;3.22;;
25758;SDS011;13604;52.496;13.456;2023-11-21T10:49:40;6.13;;;3.20;;
25758;SDS011;13604;52.496;13.456;2023-11-21T10:52:05;5.10;;;2.92;;
25758;SDS011;13604;52.496;13.456;2023-11-21T10:54:31;7.50;;;3.33;;
25758;SDS011;13604;52.496;13.456;2023-11-21T10:56:57;4.45;;;2.80;;
25758;SDS011;13604;52.496;13.456;2023-11-21T10:59:25;3.90;;;3.13;;
25758;SDS011;13604;52.496;13.456;2023-11-21T11:01:54;4.35;;;2.90;;
25758;SDS011;13604;52.496;13.456;2023-11-21T11:04:28;6.57;;;3.70;;
25758;SDS011;13604;52.496;13.456;2023-11-21T11:06:57;6.55;;;3.80;;
25758;SDS011;13604;52.496;13.456;2023-11-21T11:09:24;4.43;;;3.30;;
25758;SDS011;13604;52.496;13.456;2023-11-21T11:11:50;7.05;;;3.97;;
25758;SDS011;13604;52.496;13.456;2023-11-21T11:14:16;7.05;;;4.15;;
25758;SDS011;13604;52.496;13.456;2023-11-21T11:16:44;5.75;;;3.97;;
25758;SDS011;13604;52.496;13.456;2023-11-21T11:19:10;6.18;;;4.18;;
25758;SDS011;13604;52.496;13.456;2023-11-21T11:27:30;6.35;;;4.70;;
25758;SDS011;13604;52.496;13.456;2023-11-21T11:30:24;9.73;;;4.68;;
25758;SDS011;13604;52.496;13.456;2023-11-21T11:33:11;8.67;;;4.47;;
25758;SDS011;13604;52.496;13.456;2023-11-21T11:38:45;8.15;;;4.28;;
25758;SDS011;13604;52.496;13.456;2023-11-21T11:41:11;9.98;;;4.97;;
25758;SDS011;13604;52.496;13.456;2023-11-21T11:43:37;6.50;;;4.75;;
25758;SDS011;13604;52.496;13.456;2023-11-21T11:46:09;6.78;;;4.43;;
25758;SDS011;13604;52.496;13.456;2023-11-21T11:48:37;7.93;;;4.43;;
25758;SDS011;13604;52.496;13.456;2023-11-21T11:51:11;6.97;;;4.60;;
25758;SDS011;13604;52.496;13.456;2023-11-21T11:53:47;7.28;;;4.45;;
25758;SDS011;13604;52.496;13.456;2023-11-21T11:56:19;7.55;;;4.60;;
25758;SDS011;13604;52.496;13.456;2023-11-21T11:58:45;8.05;;;4.60;;
25758;SDS011;13604;52.496;13.456;2023-11-21T12:01:11;4.90;;;4.32;;
25758;SDS011;13604;52.496;13.456;2023-11-21T12:03:37;6.50;;;4.40;;
25758;SDS011;13604;52.496;13.456;2023-11-21T12:06:02;5.25;;;3.80;;
25758;SDS011;13604;52.496;13.456;2023-11-21T12:08:28;4.78;;;3.92;;
25758;SDS011;13604;52.496;13.456;2023-11-21T12:10:56;5.50;;;4.13;;
25758;SDS011;13604;52.496;13.456;2023-11-21T12:13:22;4.90;;;3.80;;
25758;SDS011;13604;52.496;13.456;2023-11-21T12:15:48;5.53;;;4.15;;
25758;SDS011;13604;52.496;13.456;2023-11-21T12:18:14;6.13;;;3.97;;
25758;SDS011;13604;52.496;13.456;2023-11-21T12:20:39;7.78;;;3.88;;
25758;SDS011;13604;52.496;13.456;2023-11-21T12:23:06;6.15;;;4.18;;
25758;SDS011;13604;52.496;13.456;2023-11-21T12:25:31;5.63;;;4.20;;
25758;SDS011;13604;52.496;13.456;2023-11-21T12:27:58;6.65;;;4.10;;
25758;SDS011;13604;52.496;13.456;2023-11-21T12:30:25;6.05;;;4.05;;
25758;SDS011;13604;52.496;13.456;2023-11-21T12:32:55;6.30;;;4.25;;
25758;SDS011;13604;52.496;13.456;2023-11-21T12:35:21;9.10;;;3.85;;
25758;SDS011;13604;52.496;13.456;2023-11-21T12:37:49;5.10;;;3.40;;
25758;SDS011;13604;52.496;13.456;2023-11-21T12:40:14;3.80;;;3.20;;
25758;SDS011;13604;52.496;13.456;2023-11-21T12:42:41;4.18;;;3.33;;
25758;SDS011;13604;52.496;13.456;2023-11-21T12:47:44;5.20;;;3.17;;
25758;SDS011;13604;52.496;13.456;2023-11-21T12:50:10;6.65;;;3.40;;
25758;SDS011;13604;52.496;13.456;2023-11-21T12:52:46;4.35;;;3.28;;
25758;SDS011;13604;52.496;13.456;2023-11-21T12:55:13;6.30;;;3.60;;
25758;SDS011;13604;52.496;13.456;2023-11-21T12:57:43;5.80;;;3.40;;
25758;SDS011;13604;52.496;13.456;2023-11-21T13:00:10;8.93;;;4.43;;
25758;SDS011;13604;52.496;13.456;2023-11-21T13:02:42;5.20;;;3.55;;
25758;SDS011;13604;52.496;13.456;2023-11-21T13:05:07;7.38;;;3.58;;
25758;SDS011;13604;52.496;13.456;2023-11-21T13:07:43;4.82;;;3.50;;
25758;SDS011;13604;52.496;13.456;2023-11-21T13:10:12;5.80;;;3.45;;
25758;SDS011;13604;52.496;13.456;2023-11-21T13:12:42;5.25;;;3.65;;
25758;SDS011;13604;52.496;13.456;2023-11-21T13:15:10;6.72;;;3.45;;
25758;SDS011;13604;52.496;13.456;2023-11-21T13:17:35;6.32;;;3.38;;
25758;SDS011;13604;52.496;13.456;2023-11-21T13:20:01;4.82;;;3.60;;
25758;SDS011;13604;52.496;13.456;2023-11-21T13:22:30;7.22;;;3.40;;
25758;SDS011;13604;52.496;13.456;2023-11-21T13:24:58;4.57;;;3.38;;
25758;SDS011;13604;52.496;13.456;2023-11-21T13:27:23;6.45;;;3.42;;
25758;SDS011;13604;52.496;13.456;2023-11-21T13:29:50;6.07;;;3.72;;
25758;SDS011;13604;52.496;13.456;2023-11-21T13:32:16;5.30;;;3.72;;
25758;SDS011;13604;52.496;13.456;2023-11-21T13:34:45;5.95;;;3.88;;
25758;SDS011;13604;52.496;13.456;2023-11-21T13:37:12;6.78;;;4.78;;
25758;SDS011;13604;52.496;13.456;2023-11-21T13:39:38;8.50;;;4.90;;
25758;SDS011;13604;52.496;13.456;2023-11-21T13:42:09;9.35;;;5.80;;
25758;SDS011;13604;52.496;13.456;2023-11-21T13:44:36;9.98;;;5.80;;
25758;SDS011;13604;52.496;13.456;2023-11-21T13:47:03;12.73;;;6.30;;
25758;SDS011;13604;52.496;13.456;2023-11-21T13:49:30;8.98;;;5.95;;
25758;SDS011;13604;52.496;13.456;2023-11-21T13:52:00;10.82;;;6.53;;
25758;SDS011;13604;52.496;13.456;2023-11-21T13:54:27;9.50;;;6.10;;
25758;SDS011;13604;52.496;13.456;2023-11-21T13:56:53;10.95;;;7.30;;
25758;SDS011;13604;52.496;13.456;2023-11-21T13:59:19;12.27;;;7.13;;
25758;SDS011;13604;52.496;13.456;2023-11-21T14:01:53;10.70;;;6.30;;
25758;SDS011;13604;52.496;13.456;2023-11-21T14:04:22;12.23;;;6.90;;
25758;SDS011;13604;52.496;13.456;2023-11-21T14:06:55;12.27;;;7.25;;
25758;SDS011;13604;52.496;13.456;2023-11-21T14:09:21;10.25;;;6.72;;
25758;SDS011;13604;52.496;13.456;2023-11-21T14:11:49;15.50;;;7.88;;
25758;SDS011;13604;52.496;13.456;2023-11-21T14:14:19;14.25;;;8.27;;
25758;SDS011;13604;52.496;13.456;2023-11-21T14:16:46;14.85;;;9.13;;
25758;SDS011;13604;52.496;13.456;2023-11-21T14:19:12;13.65;;;8.25;;
25758;SDS011;13604;52.496;13.456;2023-11-21T14:21:43;18.08;;;10.32;;
25758;SDS011;13604;52.496;13.456;2023-11-21T14:24:09;18.75;;;9.68;;
25758;SDS011;13604;52.496;13.456;2023-11-21T14:26:37;17.73;;;11.32;;
25758;SDS011;13604;52.496;13.456;2023-11-21T14:29:03;20.98;;;12.80;;